createdAt,value
2017-03-18T00:00:31.911Z,6.00
2017-03-18T00:01:31.881Z,6.10
2017-03-18T00:02:31.852Z,6.20
2017-03-18T00:03:31.756Z,6.10
2017-03-18T00:04:31.792Z,6.20
2017-03-18T00:05:31.813Z,6.00
2017-03-18T00:06:31.838Z,6.10
2017-03-18T00:07:32.538Z,6.00
2017-03-18T00:08:32.534Z,6.00
2017-03-18T00:09:32.573Z,6.00
2017-03-18T00:10:32.550Z,6.10
2017-03-18T00:11:32.691Z,6.00
2017-03-18T00:12:32.659Z,6.00
2017-03-18T00:13:32.635Z,6.00
2017-03-18T00:14:32.604Z,6.10
2017-03-18T00:15:32.528Z,6.10
2017-03-18T00:16:33.283Z,6.10
2017-03-18T00:17:33.258Z,6.00
2017-03-18T00:18:33.248Z,5.90
2017-03-18T00:19:33.223Z,6.10
2017-03-18T00:20:33.337Z,6.30
2017-03-18T00:21:33.333Z,6.30
2017-03-18T00:22:33.372Z,6.30
2017-03-18T00:23:33.390Z,6.20
2017-03-18T00:24:39.737Z,6.30
2017-03-18T00:25:40.896Z,6.40
2017-03-18T00:26:40.977Z,6.20
2017-03-18T00:27:40.958Z,6.40
2017-03-18T00:28:40.927Z,6.20
2017-03-18T00:29:40.913Z,6.30
2017-03-18T00:30:40.968Z,6.40
2017-03-18T00:31:41.006Z,6.20
2017-03-18T00:32:41.080Z,6.30
2017-03-18T00:33:41.153Z,6.20
2017-03-18T00:34:41.159Z,6.40
2017-03-18T00:35:41.175Z,6.40
2017-03-18T00:36:41.704Z,6.40
2017-03-18T00:37:41.652Z,6.40
2017-03-18T00:38:42.019Z,6.40
2017-03-18T00:39:41.986Z,6.40
2017-03-18T00:40:42.017Z,6.40
2017-03-18T00:41:42.082Z,6.30
2017-03-18T00:42:42.042Z,6.30
2017-03-18T00:43:42.088Z,6.20
2017-03-18T00:44:42.109Z,6.50
2017-03-18T00:45:42.126Z,6.30
2017-03-18T00:46:42.149Z,6.40
2017-03-18T00:47:42.949Z,6.30
2017-03-18T00:48:42.914Z,6.30
2017-03-18T00:49:42.913Z,6.30
2017-03-18T00:50:42.881Z,6.30
2017-03-18T00:51:42.895Z,6.40
2017-03-18T00:52:42.871Z,6.20
2017-03-18T00:53:42.915Z,6.30
2017-03-18T00:54:42.937Z,6.20
2017-03-18T00:55:42.922Z,6.30
2017-03-18T00:56:42.936Z,6.40
2017-03-18T00:57:42.895Z,6.30
2017-03-18T00:58:42.919Z,6.30
2017-03-18T00:59:42.893Z,6.20
2017-03-18T01:00:42.865Z,6.20
2017-03-18T01:01:42.885Z,6.40
2017-03-18T01:02:42.906Z,6.30
2017-03-18T01:03:42.929Z,6.20
2017-03-18T01:04:42.878Z,6.30
2017-03-18T01:05:42.890Z,6.30
2017-03-18T01:06:42.954Z,6.40
2017-03-18T01:07:42.932Z,6.30
2017-03-18T01:08:43.126Z,6.30
2017-03-18T01:09:43.142Z,6.30
2017-03-18T01:10:43.143Z,6.40
2017-03-18T01:11:43.119Z,6.30
2017-03-18T01:12:43.111Z,6.20
2017-03-18T01:13:43.177Z,6.30
2017-03-18T01:14:43.185Z,6.20
2017-03-18T01:15:43.186Z,6.40
2017-03-18T01:16:43.170Z,6.60
2017-03-18T01:17:43.147Z,6.40
2017-03-18T01:18:43.101Z,6.20
2017-03-18T01:19:43.139Z,6.40
2017-03-18T01:20:43.092Z,6.50
2017-03-18T01:21:43.160Z,6.30
2017-03-18T01:22:43.171Z,6.40
2017-03-18T01:23:43.125Z,6.40
2017-03-18T01:24:43.070Z,6.50
2017-03-18T01:25:45.440Z,6.30
2017-03-18T01:26:45.554Z,6.30
2017-03-18T01:27:45.528Z,6.30
2017-03-18T01:28:45.506Z,6.40
2017-03-18T01:29:45.423Z,6.40
2017-03-18T01:30:45.334Z,6.50
2017-03-18T01:31:45.372Z,6.30
2017-03-18T01:32:45.335Z,6.30
2017-03-18T01:33:44.517Z,6.20
2017-03-18T01:34:44.439Z,6.30
2017-03-18T01:35:44.428Z,6.30
2017-03-18T01:36:44.341Z,6.30
2017-03-18T01:37:45.011Z,6.20
2017-03-18T01:38:44.955Z,6.20
2017-03-18T01:39:44.880Z,6.40
2017-03-18T01:40:44.825Z,6.40
2017-03-18T01:41:44.751Z,6.40
2017-03-18T01:42:44.698Z,6.50
2017-03-18T01:43:44.667Z,6.30
2017-03-18T01:44:44.590Z,6.40
2017-03-18T01:45:44.501Z,6.30
2017-03-18T01:46:44.531Z,6.40
2017-03-18T01:47:44.454Z,6.30
2017-03-18T01:48:44.434Z,6.30
2017-03-18T01:49:44.374Z,6.30
2017-03-18T01:50:44.324Z,6.30
2017-03-18T01:51:45.048Z,6.20
2017-03-18T01:52:44.944Z,6.40
2017-03-18T01:53:44.876Z,6.40
2017-03-18T01:54:44.822Z,6.10
2017-03-18T01:55:44.726Z,6.40
2017-03-18T01:56:44.655Z,6.40
2017-03-18T01:57:45.293Z,6.40
2017-03-18T01:58:45.237Z,6.30
2017-03-18T01:59:45.166Z,6.40
2017-03-18T02:00:45.117Z,6.40
2017-03-18T02:01:45.021Z,6.40
2017-03-18T02:02:44.999Z,6.20
2017-03-18T02:03:44.953Z,6.20
2017-03-18T02:04:44.923Z,6.40
2017-03-18T02:05:44.902Z,6.40
2017-03-18T02:06:44.912Z,6.20
2017-03-18T02:07:44.906Z,6.40
2017-03-18T02:08:44.924Z,6.20
2017-03-18T02:09:44.967Z,6.30
2017-03-18T02:10:44.922Z,6.40
2017-03-18T02:11:44.863Z,6.30
2017-03-18T02:12:45.483Z,6.30
2017-03-18T02:13:45.449Z,6.20
2017-03-18T02:14:45.431Z,6.40
2017-03-18T02:15:45.552Z,6.20
2017-03-18T02:16:45.529Z,6.20
2017-03-18T02:17:45.624Z,6.40
2017-03-18T02:18:46.338Z,6.40
2017-03-18T02:19:46.258Z,6.50
2017-03-18T02:20:46.930Z,6.40
2017-03-18T02:21:46.877Z,6.40
2017-03-18T02:22:47.578Z,6.40
2017-03-18T02:23:47.497Z,6.20
2017-03-18T02:24:47.409Z,6.50
2017-03-18T02:25:47.362Z,6.30
2017-03-18T02:26:47.370Z,6.30
2017-03-18T02:27:47.361Z,6.30
2017-03-18T02:28:47.327Z,6.30
2017-03-18T02:29:47.243Z,6.30
2017-03-18T02:30:47.207Z,6.30
2017-03-18T02:31:47.142Z,6.60
2017-03-18T02:32:47.841Z,6.60
2017-03-18T02:33:47.796Z,6.50
2017-03-18T02:34:47.739Z,6.20
2017-03-18T02:35:47.707Z,6.30
2017-03-18T02:36:47.726Z,6.60
2017-03-18T02:37:47.683Z,6.30
2017-03-18T02:38:47.608Z,6.50
2017-03-18T02:39:47.823Z,6.80
2017-03-18T02:40:47.754Z,6.80
2017-03-18T02:41:47.839Z,6.60
2017-03-18T02:42:47.802Z,6.50
2017-03-18T02:43:47.699Z,6.60
2017-03-18T02:44:48.577Z,6.50
2017-03-18T02:45:48.499Z,6.70
2017-03-18T02:46:48.550Z,6.60
2017-03-18T02:47:48.481Z,6.70
2017-03-18T02:48:48.413Z,6.70
2017-03-18T02:49:48.366Z,6.80
2017-03-18T02:50:48.348Z,6.60
2017-03-18T02:51:48.306Z,6.70
2017-03-18T02:52:48.514Z,6.70
2017-03-18T02:53:48.454Z,6.60
2017-03-18T02:54:48.397Z,6.70
2017-03-18T02:55:48.340Z,6.70
2017-03-18T02:56:48.430Z,6.60
2017-03-18T02:57:48.333Z,6.70
2017-03-18T02:58:48.318Z,6.70
2017-03-18T02:59:48.215Z,6.60
2017-03-18T03:00:48.190Z,6.80
2017-03-18T03:01:48.245Z,6.60
2017-03-18T03:02:48.170Z,6.80
2017-03-18T03:03:48.099Z,6.60
2017-03-18T03:04:48.009Z,6.70
2017-03-18T03:05:48.052Z,6.60
2017-03-18T03:06:48.055Z,6.60
2017-03-18T03:07:48.025Z,6.60
2017-03-18T03:08:47.995Z,6.60
2017-03-18T03:09:47.903Z,6.70
2017-03-18T03:10:47.846Z,6.70
2017-03-18T03:11:47.831Z,6.70
2017-03-18T03:12:47.787Z,6.80
2017-03-18T03:13:47.731Z,6.60
2017-03-18T03:14:47.652Z,7.10
2017-03-18T03:15:47.568Z,6.80
2017-03-18T03:16:47.580Z,6.80
2017-03-18T03:17:47.588Z,6.80
2017-03-18T03:18:47.550Z,6.70
2017-03-18T03:19:47.548Z,6.70
2017-03-18T03:20:47.466Z,6.60
2017-03-18T03:21:48.215Z,6.80
2017-03-18T03:22:48.177Z,7.10
2017-03-18T03:23:48.189Z,6.80
2017-03-18T03:24:48.173Z,6.60
2017-03-18T03:25:48.126Z,6.60
2017-03-18T03:26:48.178Z,6.60
2017-03-18T03:27:48.218Z,6.70
2017-03-18T03:28:48.221Z,6.80
2017-03-18T03:29:48.241Z,7.00
2017-03-18T03:30:48.213Z,6.90
2017-03-18T03:31:48.157Z,7.00
2017-03-18T03:32:48.102Z,6.70
2017-03-18T03:33:48.086Z,7.00
2017-03-18T03:34:48.047Z,6.70
2017-03-18T03:35:48.033Z,7.20
2017-03-18T03:36:47.970Z,6.90
2017-03-18T03:37:48.055Z,6.90
2017-03-18T03:38:48.053Z,7.00
2017-03-18T03:39:48.105Z,6.70
2017-03-18T03:40:48.090Z,7.00
2017-03-18T03:41:48.042Z,6.90
2017-03-18T03:42:47.979Z,7.10
2017-03-18T03:43:47.955Z,7.00
2017-03-18T03:44:47.939Z,6.90
2017-03-18T03:45:47.878Z,6.90
2017-03-18T03:46:47.837Z,7.10
2017-03-18T03:47:47.772Z,7.00
2017-03-18T03:48:47.735Z,7.10
2017-03-18T03:49:48.450Z,7.00
2017-03-18T03:50:48.413Z,7.10
2017-03-18T03:51:48.452Z,6.90
2017-03-18T03:52:48.554Z,7.10
2017-03-18T03:53:48.503Z,7.10
2017-03-18T03:54:49.247Z,7.00
2017-03-18T03:55:49.166Z,7.10
2017-03-18T03:56:49.110Z,7.00
2017-03-18T03:57:49.139Z,7.10
2017-03-18T03:58:49.103Z,7.10
2017-03-18T03:59:49.096Z,7.00
2017-03-18T04:00:49.038Z,7.10
2017-03-18T04:01:49.026Z,7.10
2017-03-18T04:02:49.003Z,7.20
2017-03-18T04:03:48.930Z,6.90
2017-03-18T04:04:48.925Z,7.00
2017-03-18T04:05:49.009Z,7.10
2017-03-18T04:06:48.950Z,7.10
2017-03-18T04:07:48.888Z,7.00
2017-03-18T04:08:48.844Z,7.10
2017-03-18T04:09:48.801Z,7.00
2017-03-18T04:10:48.762Z,7.20
2017-03-18T04:11:48.735Z,7.20
2017-03-18T04:12:49.427Z,7.10
2017-03-18T04:13:49.395Z,7.10
2017-03-18T04:14:49.314Z,7.00
2017-03-18T04:15:49.341Z,7.20
2017-03-18T04:16:50.058Z,6.90
2017-03-18T04:17:50.025Z,6.90
2017-03-18T04:18:49.963Z,7.10
2017-03-18T04:19:49.905Z,7.00
2017-03-18T04:20:49.908Z,7.30
2017-03-18T04:21:49.833Z,7.10
2017-03-18T04:22:49.795Z,7.10
2017-03-18T04:23:49.733Z,7.10
2017-03-18T04:24:51.891Z,7.30
2017-03-18T04:25:54.557Z,6.90
2017-03-18T04:26:54.891Z,7.30
2017-03-18T04:27:54.950Z,7.10
2017-03-18T04:28:54.946Z,7.10
2017-03-18T04:29:54.890Z,7.10
2017-03-18T04:30:55.642Z,7.00
2017-03-18T04:31:55.577Z,7.20
2017-03-18T04:32:55.569Z,7.50
2017-03-18T04:33:55.535Z,7.10
2017-03-18T04:34:55.553Z,7.10
2017-03-18T04:35:56.273Z,7.50
2017-03-18T04:36:56.201Z,7.30
2017-03-18T04:37:56.229Z,7.30
2017-03-18T04:38:56.207Z,7.30
2017-03-18T04:39:56.190Z,7.50
2017-03-18T04:40:56.195Z,7.30
2017-03-18T04:41:56.158Z,7.50
2017-03-18T04:42:56.130Z,7.30
2017-03-18T04:43:56.134Z,7.40
2017-03-18T04:44:56.339Z,7.60
2017-03-18T04:45:56.319Z,7.60
2017-03-18T04:46:56.288Z,7.30
2017-03-18T04:47:56.267Z,7.40
2017-03-18T04:48:56.218Z,7.50
2017-03-18T04:49:56.163Z,7.30
2017-03-18T04:50:56.145Z,7.40
2017-03-18T04:51:56.849Z,7.50
2017-03-18T04:52:56.799Z,7.50
2017-03-18T04:53:56.744Z,7.50
2017-03-18T04:54:56.676Z,7.40
2017-03-18T04:55:56.677Z,7.60
2017-03-18T04:56:56.613Z,7.30
2017-03-18T04:57:57.325Z,7.30
2017-03-18T04:58:57.268Z,7.30
2017-03-18T04:59:57.210Z,7.40
2017-03-18T05:00:57.217Z,7.60
2017-03-18T05:01:57.178Z,7.40
2017-03-18T05:02:57.130Z,7.60
2017-03-18T05:03:57.086Z,7.50
2017-03-18T05:04:57.027Z,7.60
2017-03-18T05:05:57.091Z,7.40
2017-03-18T05:06:57.774Z,7.20
2017-03-18T05:07:57.758Z,7.60
2017-03-18T05:08:57.699Z,7.40
2017-03-18T05:09:57.674Z,7.60
2017-03-18T05:10:57.678Z,7.50
2017-03-18T05:11:57.640Z,7.40
2017-03-18T05:12:58.295Z,7.30
2017-03-18T05:13:58.282Z,7.40
2017-03-18T05:14:58.234Z,7.50
2017-03-18T05:15:58.207Z,7.40
2017-03-18T05:16:58.184Z,7.40
2017-03-18T05:17:58.128Z,7.40
2017-03-18T05:18:58.067Z,7.60
2017-03-18T05:19:58.055Z,7.70
2017-03-18T05:20:58.053Z,7.60
2017-03-18T05:21:58.021Z,7.70
2017-03-18T05:22:57.957Z,7.90
2017-03-18T05:23:57.911Z,7.40
2017-03-18T05:24:57.841Z,7.70
2017-03-18T05:25:57.805Z,7.50
2017-03-18T05:26:57.782Z,7.60
2017-03-18T05:27:57.775Z,7.50
2017-03-18T05:28:57.755Z,7.80
2017-03-18T05:29:58.474Z,7.90
2017-03-18T05:30:58.418Z,7.80
2017-03-18T05:31:58.376Z,7.80
2017-03-18T05:32:59.087Z,7.60
2017-03-18T05:33:59.018Z,7.70
2017-03-18T05:34:58.985Z,7.50
2017-03-18T05:35:58.942Z,7.90
2017-03-18T05:36:58.934Z,7.80
2017-03-18T05:37:58.906Z,7.80
2017-03-18T05:38:58.853Z,7.70
2017-03-18T05:39:58.834Z,7.80
2017-03-18T05:40:58.817Z,7.50
2017-03-18T05:41:58.850Z,8.00
2017-03-18T05:42:58.932Z,7.80
2017-03-18T05:43:58.942Z,7.90
2017-03-18T05:44:58.887Z,7.80
2017-03-18T05:46:01.036Z,7.90
2017-03-18T05:47:01.743Z,7.70
2017-03-18T05:48:01.720Z,7.80
2017-03-18T05:49:01.731Z,7.80
2017-03-18T05:50:01.690Z,8.10
2017-03-18T05:51:01.635Z,8.00
2017-03-18T05:52:01.635Z,7.80
2017-03-18T05:53:01.590Z,8.10
2017-03-18T05:54:01.537Z,7.80
2017-03-18T05:55:01.470Z,7.80
2017-03-18T05:56:01.411Z,7.90
2017-03-18T05:57:02.202Z,8.00
2017-03-18T05:58:03.116Z,8.00
2017-03-18T05:59:03.048Z,7.90
2017-03-18T06:00:02.992Z,8.00
2017-03-18T06:01:02.986Z,7.90
2017-03-18T06:02:02.974Z,7.80
2017-03-18T06:03:03.654Z,8.00
2017-03-18T06:04:03.622Z,8.10
2017-03-18T06:05:03.604Z,8.00
2017-03-18T06:06:03.582Z,8.10
2017-03-18T06:07:03.643Z,8.20
2017-03-18T06:08:03.589Z,8.40
2017-03-18T06:09:03.746Z,7.90
2017-03-18T06:10:03.721Z,8.20
2017-03-18T06:11:03.682Z,8.40
2017-03-18T06:12:03.682Z,8.30
2017-03-18T06:13:03.651Z,8.10
2017-03-18T06:14:03.591Z,8.40
2017-03-18T06:15:03.611Z,8.40
2017-03-18T06:16:03.570Z,8.20
2017-03-18T06:17:03.599Z,8.20
2017-03-18T06:18:04.154Z,8.40
2017-03-18T06:19:04.146Z,8.40
2017-03-18T06:20:04.102Z,8.20
2017-03-18T06:21:04.855Z,8.20
2017-03-18T06:22:04.826Z,8.20
2017-03-18T06:23:04.787Z,8.20
2017-03-18T06:24:04.778Z,8.30
2017-03-18T06:25:04.785Z,8.40
2017-03-18T06:26:04.751Z,8.20
2017-03-18T06:27:04.763Z,8.30
2017-03-18T06:28:04.775Z,8.30
2017-03-18T06:29:04.747Z,8.50
2017-03-18T06:30:04.690Z,8.30
2017-03-18T06:31:04.686Z,8.20
2017-03-18T06:32:04.634Z,8.40
2017-03-18T06:33:04.590Z,8.40
2017-03-18T06:34:04.550Z,8.50
2017-03-18T06:35:04.545Z,8.40
2017-03-18T06:36:04.544Z,8.30
2017-03-18T06:37:04.546Z,8.20
2017-03-18T06:38:04.614Z,8.30
2017-03-18T06:39:04.971Z,8.70
2017-03-18T06:40:04.942Z,8.30
2017-03-18T06:41:05.063Z,8.70
2017-03-18T06:42:05.016Z,8.80
2017-03-18T06:43:05.001Z,8.70
2017-03-18T06:44:05.535Z,8.60
2017-03-18T06:45:05.537Z,8.50
2017-03-18T06:46:05.538Z,8.80
2017-03-18T06:47:05.494Z,8.40
2017-03-18T06:48:05.473Z,8.80
2017-03-18T06:49:05.459Z,8.60
2017-03-18T06:50:09.474Z,8.80
2017-03-18T06:51:09.403Z,8.80
2017-03-18T06:52:09.367Z,8.60
2017-03-18T06:53:09.361Z,8.80
2017-03-18T06:54:10.046Z,8.80
2017-03-18T06:55:09.983Z,8.80
2017-03-18T06:56:10.731Z,8.70
2017-03-18T06:57:10.782Z,8.70
2017-03-18T06:58:10.786Z,8.80
2017-03-18T06:59:10.768Z,8.70
2017-03-18T07:00:10.751Z,8.90
2017-03-18T07:01:11.550Z,8.90
2017-03-18T07:03:13.510Z,8.80
2017-03-18T07:04:13.487Z,8.90
2017-03-18T07:05:13.505Z,8.70
2017-03-18T07:06:13.444Z,8.80
2017-03-18T07:07:13.447Z,8.80
2017-03-18T07:08:13.720Z,8.80
2017-03-18T07:09:13.728Z,8.80
2017-03-18T07:10:13.666Z,8.80
2017-03-18T07:11:13.607Z,8.90
2017-03-18T07:12:13.555Z,8.80
2017-03-18T07:13:13.540Z,8.90
2017-03-18T07:14:13.510Z,8.80
2017-03-18T07:15:13.458Z,8.60
2017-03-18T07:16:13.408Z,9.20
2017-03-18T07:17:13.420Z,8.80
2017-03-18T07:18:13.399Z,9.00
2017-03-18T07:19:13.363Z,8.90
2017-03-18T07:20:13.336Z,9.20
2017-03-18T07:21:13.302Z,8.80
2017-03-18T07:22:13.372Z,8.90
2017-03-18T07:23:13.364Z,8.90
2017-03-18T07:24:13.330Z,8.90
2017-03-18T07:25:17.910Z,9.20
2017-03-18T07:26:17.991Z,8.90
2017-03-18T07:27:17.937Z,9.20
2017-03-18T07:28:18.023Z,9.00
2017-03-18T07:29:18.071Z,8.80
2017-03-18T07:30:17.997Z,8.90
2017-03-18T07:31:18.704Z,9.20
2017-03-18T07:32:18.663Z,9.30
2017-03-18T07:33:18.637Z,9.00
2017-03-18T07:34:18.582Z,9.30
2017-03-18T07:35:18.522Z,9.10
2017-03-18T07:36:18.570Z,9.30
2017-03-18T07:37:19.649Z,9.10
2017-03-18T07:38:19.615Z,9.10
2017-03-18T07:39:19.565Z,9.10
2017-03-18T07:40:19.539Z,9.30
2017-03-18T07:41:19.502Z,9.10
2017-03-18T07:42:19.443Z,9.20
2017-03-18T07:43:19.447Z,9.10
2017-03-18T07:44:19.390Z,9.20
2017-03-18T07:45:19.333Z,9.30
2017-03-18T07:46:20.017Z,9.30
2017-03-18T07:47:19.971Z,9.40
2017-03-18T07:48:19.937Z,9.30
2017-03-18T07:49:20.660Z,9.10
2017-03-18T07:50:20.614Z,9.20
2017-03-18T07:51:20.613Z,9.30
2017-03-18T07:52:20.569Z,9.10
2017-03-18T07:53:20.628Z,9.10
2017-03-18T07:54:21.389Z,9.20
2017-03-18T07:55:21.470Z,9.30
2017-03-18T07:56:21.433Z,9.20
2017-03-18T07:57:21.432Z,9.20
2017-03-18T07:58:21.432Z,9.30
2017-03-18T07:59:21.401Z,9.60
2017-03-18T08:00:21.398Z,9.40
2017-03-18T08:01:21.381Z,9.50
2017-03-18T08:02:22.470Z,9.70
2017-03-18T08:03:22.451Z,9.30
2017-03-18T08:04:22.451Z,9.50
2017-03-18T08:05:22.431Z,9.40
2017-03-18T08:06:22.414Z,9.50
2017-03-18T08:07:22.390Z,9.60
2017-03-18T08:08:22.366Z,9.50
2017-03-18T08:09:22.398Z,9.60
2017-03-18T08:10:22.469Z,9.50
2017-03-18T08:11:22.461Z,9.70
2017-03-18T08:12:22.414Z,9.80
2017-03-18T08:13:22.388Z,9.50
2017-03-18T08:14:23.187Z,9.60
2017-03-18T08:15:23.166Z,9.40
2017-03-18T08:16:23.182Z,9.60
2017-03-18T08:17:23.259Z,9.80
2017-03-18T08:18:23.255Z,9.60
2017-03-18T08:19:24.049Z,9.70
2017-03-18T08:20:23.995Z,9.60
2017-03-18T08:21:23.981Z,9.70
2017-03-18T08:22:23.946Z,9.70
2017-03-18T08:23:23.948Z,9.70
2017-03-18T08:24:25.328Z,9.70
2017-03-18T08:25:25.298Z,9.70
2017-03-18T08:26:25.226Z,9.60
2017-03-18T08:27:25.926Z,9.80
2017-03-18T08:28:25.920Z,9.70
2017-03-18T08:29:25.874Z,9.70
2017-03-18T08:30:25.849Z,9.70
2017-03-18T08:31:25.816Z,10.00
2017-03-18T08:32:25.906Z,9.60
2017-03-18T08:33:26.134Z,9.70
2017-03-18T08:34:26.218Z,9.70
2017-03-18T08:35:26.166Z,9.70
2017-03-18T08:36:26.239Z,9.80
2017-03-18T08:37:26.211Z,9.90
2017-03-18T08:38:26.192Z,10.20
2017-03-18T08:39:26.636Z,9.90
2017-03-18T08:40:26.587Z,10.10
2017-03-18T08:41:26.568Z,9.90
2017-03-18T08:42:26.535Z,9.90
2017-03-18T08:43:26.547Z,9.90
2017-03-18T08:44:26.486Z,9.90
2017-03-18T08:45:27.285Z,10.00
2017-03-18T08:46:27.330Z,9.80
2017-03-18T08:47:27.272Z,10.00
2017-03-18T08:48:27.258Z,10.00
2017-03-18T08:49:27.210Z,10.00
2017-03-18T08:50:27.214Z,9.80
2017-03-18T08:51:27.182Z,9.80
2017-03-18T08:52:27.232Z,9.80
2017-03-18T08:53:27.226Z,10.00
2017-03-18T08:54:27.963Z,9.90
2017-03-18T08:55:28.003Z,10.30
2017-03-18T08:56:28.810Z,10.20
2017-03-18T08:57:29.565Z,10.00
2017-03-18T08:58:29.665Z,10.30
2017-03-18T08:59:30.344Z,10.10
2017-03-18T09:00:30.313Z,10.10
2017-03-18T09:01:30.317Z,10.30
2017-03-18T09:02:30.372Z,10.10
2017-03-18T09:03:30.365Z,10.10
2017-03-18T09:04:30.829Z,10.10
2017-03-18T09:05:31.553Z,9.90
2017-03-18T09:06:32.238Z,10.00
2017-03-18T09:07:32.190Z,10.30
2017-03-18T09:08:32.190Z,10.30
2017-03-18T09:09:32.131Z,10.20
2017-03-18T09:10:32.083Z,10.30
2017-03-18T09:11:32.045Z,10.30
2017-03-18T09:12:32.070Z,10.20
2017-03-18T09:13:32.058Z,10.10
2017-03-18T09:14:32.043Z,10.10
2017-03-18T09:15:31.989Z,10.10
2017-03-18T09:16:31.950Z,10.20
2017-03-18T09:17:31.938Z,10.20
2017-03-18T09:18:31.914Z,10.20
2017-03-18T09:19:31.923Z,10.20
2017-03-18T09:20:32.932Z,10.30
2017-03-18T09:21:32.885Z,10.10
2017-03-18T09:22:32.889Z,10.20
2017-03-18T09:23:32.920Z,10.20
2017-03-18T09:24:40.992Z,10.30
2017-03-18T09:25:41.565Z,10.50
2017-03-18T09:26:42.268Z,10.30
2017-03-18T09:27:44.206Z,10.30
2017-03-18T09:28:44.238Z,10.30
2017-03-18T09:29:44.228Z,10.40
2017-03-18T09:30:44.182Z,10.40
2017-03-18T09:31:44.141Z,10.60
2017-03-18T09:32:44.121Z,10.40
2017-03-18T09:33:44.173Z,10.60
2017-03-18T09:34:44.173Z,10.50
2017-03-18T09:35:44.131Z,10.50
2017-03-18T09:36:44.133Z,10.50
2017-03-18T09:37:44.116Z,10.50
2017-03-18T09:38:44.083Z,10.60
2017-03-18T09:39:44.095Z,10.60
2017-03-18T09:40:44.774Z,10.60
2017-03-18T09:41:45.457Z,10.60
2017-03-18T09:42:45.438Z,10.50
2017-03-18T09:43:45.459Z,10.60
2017-03-18T09:44:45.502Z,10.60
2017-03-18T09:45:45.497Z,10.60
2017-03-18T09:46:45.507Z,10.60
2017-03-18T09:47:45.531Z,10.60
2017-03-18T09:48:48.140Z,10.70
2017-03-18T09:49:48.166Z,10.70
2017-03-18T09:50:48.174Z,10.70
2017-03-18T09:51:48.179Z,10.70
2017-03-18T09:52:48.557Z,10.70
2017-03-18T09:53:48.522Z,10.70
2017-03-18T09:54:48.542Z,10.70
2017-03-18T09:55:48.493Z,10.70
2017-03-18T09:56:49.151Z,10.70
2017-03-18T09:57:49.103Z,10.70
2017-03-18T09:58:49.092Z,10.60
2017-03-18T09:59:49.086Z,10.70
2017-03-18T10:00:49.069Z,10.70
2017-03-18T10:01:49.042Z,10.70
2017-03-18T10:02:49.020Z,10.70
2017-03-18T10:03:49.753Z,10.70
2017-03-18T10:04:50.466Z,10.70
2017-03-18T10:05:50.441Z,10.70
2017-03-18T10:06:50.430Z,10.70
2017-03-18T10:07:50.585Z,10.70
2017-03-18T10:08:50.567Z,10.60
2017-03-18T10:09:52.616Z,10.90
2017-03-18T10:10:52.687Z,10.70
2017-03-18T10:11:52.754Z,10.70
2017-03-18T10:12:53.419Z,11.10
2017-03-18T10:13:53.511Z,10.70
2017-03-18T10:14:55.010Z,10.70
2017-03-18T10:15:54.951Z,10.50
2017-03-18T10:16:55.674Z,10.70
2017-03-18T10:17:57.899Z,10.80
2017-03-18T10:18:58.614Z,10.80
2017-03-18T10:19:59.804Z,10.80
2017-03-18T10:21:00.083Z,10.80
2017-03-18T10:22:00.065Z,10.80
2017-03-18T10:23:00.030Z,11.00
2017-03-18T10:23:59.993Z,10.80
2017-03-18T10:25:02.606Z,10.80
2017-03-18T10:26:02.704Z,10.90
2017-03-18T10:27:03.421Z,11.10
2017-03-18T10:28:03.428Z,11.10
2017-03-18T10:29:03.578Z,10.80
2017-03-18T10:30:03.554Z,11.00
2017-03-18T10:31:03.490Z,11.00
2017-03-18T10:32:03.479Z,11.00
2017-03-18T10:33:03.453Z,11.10
2017-03-18T10:34:03.586Z,11.00
2017-03-18T10:35:03.634Z,11.20
2017-03-18T10:36:03.692Z,11.10
2017-03-18T10:37:03.646Z,11.10
2017-03-18T10:38:03.606Z,11.00
2017-03-18T10:39:03.722Z,11.10
2017-03-18T10:40:03.766Z,11.10
2017-03-18T10:41:03.746Z,11.10
2017-03-18T10:42:03.730Z,11.10
2017-03-18T10:43:03.686Z,11.20
2017-03-18T10:44:03.664Z,10.90
2017-03-18T10:45:03.752Z,11.20
2017-03-18T10:46:06.755Z,11.40
2017-03-18T10:47:06.722Z,11.20
2017-03-18T10:48:07.195Z,10.90
2017-03-18T10:49:07.155Z,11.20
2017-03-18T10:50:07.157Z,11.20
2017-03-18T10:51:07.962Z,11.10
2017-03-18T10:52:07.963Z,11.20
2017-03-18T10:53:08.013Z,11.20
2017-03-18T10:54:07.986Z,11.50
2017-03-18T10:55:08.000Z,11.20
2017-03-18T10:56:07.965Z,11.30
2017-03-18T10:57:07.989Z,11.30
2017-03-18T10:58:08.001Z,11.30
2017-03-18T10:59:08.023Z,11.30
2017-03-18T11:00:08.154Z,11.60
2017-03-18T11:01:08.142Z,11.30
2017-03-18T11:02:11.490Z,11.30
2017-03-18T11:03:11.914Z,11.30
2017-03-18T11:04:11.943Z,11.30
2017-03-18T11:05:11.972Z,11.40
2017-03-18T11:06:12.718Z,11.50
2017-03-18T11:07:12.706Z,11.30
2017-03-18T11:08:12.763Z,11.50
2017-03-18T11:09:12.842Z,11.50
2017-03-18T11:10:12.919Z,11.40
2017-03-18T11:11:13.758Z,11.50
2017-03-18T11:12:13.968Z,11.30
2017-03-18T11:13:14.758Z,11.40
2017-03-18T11:14:15.210Z,11.20
2017-03-18T11:15:15.942Z,11.20
2017-03-18T11:16:15.940Z,11.20
2017-03-18T11:17:16.810Z,11.20
2017-03-18T11:18:16.790Z,11.10
2017-03-18T11:19:16.734Z,11.10
2017-03-18T11:20:16.730Z,11.10
2017-03-18T11:21:16.690Z,11.20
2017-03-18T11:22:16.759Z,11.20
2017-03-18T11:23:18.258Z,11.20
2017-03-18T11:24:18.232Z,11.30
2017-03-18T11:25:18.198Z,11.30
2017-03-18T11:26:18.162Z,11.20
2017-03-18T11:27:18.130Z,11.30
2017-03-18T11:28:18.135Z,11.30
2017-03-18T11:29:18.239Z,11.30
2017-03-18T11:30:18.284Z,11.40
2017-03-18T11:31:18.288Z,11.40
2017-03-18T11:32:18.283Z,11.60
2017-03-18T11:33:18.224Z,11.50
2017-03-18T11:34:18.262Z,11.70
2017-03-18T11:35:18.281Z,11.60
2017-03-18T11:36:18.251Z,11.60
2017-03-18T11:37:18.295Z,11.70
2017-03-18T11:38:18.255Z,11.70
2017-03-18T11:39:18.248Z,11.60
2017-03-18T11:40:18.255Z,11.60
2017-03-18T11:41:18.231Z,11.50
2017-03-18T11:42:18.241Z,11.50
2017-03-18T11:43:18.986Z,11.70
2017-03-18T11:44:18.971Z,11.50
2017-03-18T11:45:19.078Z,11.50
2017-03-18T11:46:19.098Z,11.50
2017-03-18T11:47:19.086Z,11.50
2017-03-18T11:48:19.049Z,11.50
2017-03-18T11:49:19.028Z,11.30
2017-03-18T11:50:19.070Z,11.50
2017-03-18T11:51:19.038Z,11.50
2017-03-18T11:52:19.015Z,11.60
2017-03-18T11:53:18.983Z,11.60
2017-03-18T11:54:18.968Z,11.60
2017-03-18T11:55:18.964Z,11.90
2017-03-18T11:56:19.280Z,11.70
2017-03-18T11:57:19.965Z,11.40
2017-03-18T11:58:19.967Z,11.40
2017-03-18T11:59:19.995Z,11.60
2017-03-18T12:00:20.049Z,11.60
2017-03-18T12:01:20.024Z,11.60
2017-03-18T12:02:19.997Z,11.50
2017-03-18T12:03:19.969Z,11.50
2017-03-18T12:04:20.050Z,11.60
2017-03-18T12:05:20.813Z,11.70
2017-03-18T12:06:20.801Z,11.40
2017-03-18T12:07:20.797Z,11.60
2017-03-18T12:08:20.773Z,11.70
2017-03-18T12:09:20.801Z,11.90
2017-03-18T12:10:20.915Z,11.60
2017-03-18T12:11:20.883Z,11.60
2017-03-18T12:12:20.883Z,11.60
2017-03-18T12:13:20.876Z,11.60
2017-03-18T12:14:20.838Z,11.60
2017-03-18T12:15:20.845Z,11.60
2017-03-18T12:16:20.802Z,11.60
2017-03-18T12:17:20.805Z,11.60
2017-03-18T12:18:20.793Z,11.60
2017-03-18T12:19:20.779Z,11.40
2017-03-18T12:20:23.378Z,11.80
2017-03-18T12:21:24.123Z,11.60
2017-03-18T12:22:24.092Z,11.70
2017-03-18T12:23:24.111Z,11.80
2017-03-18T12:24:24.104Z,12.00
2017-03-18T12:25:31.840Z,12.00
2017-03-18T12:26:31.824Z,11.80
2017-03-18T12:27:31.828Z,11.70
2017-03-18T12:28:31.811Z,11.70
2017-03-18T12:29:31.831Z,11.70
2017-03-18T12:30:31.837Z,12.00
2017-03-18T12:31:31.855Z,11.60
2017-03-18T12:32:31.829Z,11.60
2017-03-18T12:33:31.795Z,11.60
2017-03-18T12:34:32.548Z,11.30
2017-03-18T12:35:32.562Z,11.60
2017-03-18T12:36:32.631Z,11.40
2017-03-18T12:37:32.602Z,11.60
2017-03-18T12:38:32.637Z,11.60
2017-03-18T12:39:33.234Z,11.40
2017-03-18T12:40:33.239Z,11.60
2017-03-18T12:41:33.252Z,11.60
2017-03-18T12:42:33.261Z,11.60
2017-03-18T12:43:33.285Z,11.40
2017-03-18T12:44:33.334Z,11.60
2017-03-18T12:45:33.335Z,11.60
2017-03-18T12:46:33.410Z,11.60
2017-03-18T12:47:33.414Z,11.60
2017-03-18T12:48:33.450Z,11.70
2017-03-18T12:49:33.521Z,11.70
2017-03-18T12:50:33.519Z,11.70
2017-03-18T12:51:33.526Z,11.70
2017-03-18T12:52:34.254Z,11.70
2017-03-18T12:53:34.306Z,11.70
2017-03-18T12:54:34.312Z,11.60
2017-03-18T12:55:34.318Z,11.80
2017-03-18T12:56:34.334Z,11.60
2017-03-18T12:57:34.342Z,11.60
2017-03-18T12:58:34.436Z,11.90
2017-03-18T12:59:34.533Z,11.50
2017-03-18T13:00:34.561Z,11.50
2017-03-18T13:01:34.592Z,11.50
2017-03-18T13:02:34.571Z,11.50
2017-03-18T13:03:34.538Z,11.50
2017-03-18T13:04:34.517Z,11.50
2017-03-18T13:05:34.539Z,11.50
2017-03-18T13:06:34.500Z,11.50
2017-03-18T13:07:34.480Z,11.50
2017-03-18T13:08:34.487Z,11.40
2017-03-18T13:09:34.641Z,11.60
2017-03-18T13:10:34.666Z,11.60
2017-03-18T13:11:34.686Z,11.60
2017-03-18T13:12:34.702Z,11.60